sensor_id;sensor_type;location;lat;lon;timestamp;P1;durP1;ratioP1;P2;durP2;ratioP2
50102;SDS011;35993;52.604;10.078;2023-04-24T00:01:39;2.97;;;1.10;;
50102;SDS011;35993;52.604;10.078;2023-04-24T00:04:05;2.92;;;1.20;;
50102;SDS011;35993;52.604;10.078;2023-04-24T00:06:32;2.25;;;1.30;;
50102;SDS011;35993;52.604;10.078;2023-04-24T00:08:59;1.65;;;1.20;;
50102;SDS011;35993;52.604;10.078;2023-04-24T00:11:25;1.70;;;1.38;;
50102;SDS011;35993;52.604;10.078;2023-04-24T00:13:52;1.80;;;1.20;;
50102;SDS011;35993;52.604;10.078;2023-04-24T00:16:18;2.10;;;1.38;;
50102;SDS011;35993;52.604;10.078;2023-04-24T00:18:43;1.60;;;0.90;;
50102;SDS011;35993;52.604;10.078;2023-04-24T00:21:10;1.60;;;1.20;;
50102;SDS011;35993;52.604;10.078;2023-04-24T00:23:36;1.55;;;1.10;;
50102;SDS011;35993;52.604;10.078;2023-04-24T00:26:02;1.52;;;1.10;;
50102;SDS011;35993;52.604;10.078;2023-04-24T00:28:27;1.30;;;1.10;;
50102;SDS011;35993;52.604;10.078;2023-04-24T00:30:53;2.28;;;1.10;;
50102;SDS011;35993;52.604;10.078;2023-04-24T00:33:19;1.63;;;1.10;;
50102;SDS011;35993;52.604;10.078;2023-04-24T00:35:45;1.48;;;0.90;;
50102;SDS011;35993;52.604;10.078;2023-04-24T00:38:11;1.40;;;1.00;;
50102;SDS011;35993;52.604;10.078;2023-04-24T00:40:36;1.88;;;1.30;;
50102;SDS011;35993;52.604;10.078;2023-04-24T00:43:02;1.63;;;1.17;;
50102;SDS011;35993;52.604;10.078;2023-04-24T00:45:28;1.45;;;1.15;;
50102;SDS011;35993;52.604;10.078;2023-04-24T00:47:53;1.00;;;0.90;;
50102;SDS011;35993;52.604;10.078;2023-04-24T00:50:19;1.80;;;0.82;;
50102;SDS011;35993;52.604;10.078;2023-04-24T00:52:46;1.63;;;1.08;;
50102;SDS011;35993;52.604;10.078;2023-04-24T00:55:12;1.33;;;1.00;;
50102;SDS011;35993;52.604;10.078;2023-04-24T00:57:38;1.48;;;1.00;;
50102;SDS011;35993;52.604;10.078;2023-04-24T01:00:04;2.05;;;1.00;;
50102;SDS011;35993;52.604;10.078;2023-04-24T01:05:02;1.40;;;1.02;;
50102;SDS011;35993;52.604;10.078;2023-04-24T01:07:28;1.05;;;0.95;;
50102;SDS011;35993;52.604;10.078;2023-04-24T01:09:54;1.52;;;1.00;;
50102;SDS011;35993;52.604;10.078;2023-04-24T01:12:20;1.83;;;1.17;;
50102;SDS011;35993;52.604;10.078;2023-04-24T01:14:46;2.70;;;1.02;;
50102;SDS011;35993;52.604;10.078;2023-04-24T01:17:11;1.45;;;1.00;;
50102;SDS011;35993;52.604;10.078;2023-04-24T01:19:37;2.22;;;1.00;;
50102;SDS011;35993;52.604;10.078;2023-04-24T01:22:08;1.50;;;1.00;;
50102;SDS011;35993;52.604;10.078;2023-04-24T01:24:35;1.70;;;1.00;;
50102;SDS011;35993;52.604;10.078;2023-04-24T01:27:01;2.08;;;1.00;;
50102;SDS011;35993;52.604;10.078;2023-04-24T01:29:27;1.40;;;1.00;;
50102;SDS011;35993;52.604;10.078;2023-04-24T01:31:53;1.20;;;0.90;;
50102;SDS011;35993;52.604;10.078;2023-04-24T01:34:19;1.77;;;1.20;;
50102;SDS011;35993;52.604;10.078;2023-04-24T01:36:45;1.33;;;1.10;;
50102;SDS011;35993;52.604;10.078;2023-04-24T01:39:11;1.90;;;1.35;;
50102;SDS011;35993;52.604;10.078;2023-04-24T01:41:37;1.55;;;1.00;;
50102;SDS011;35993;52.604;10.078;2023-04-24T01:44:03;1.40;;;1.10;;
50102;SDS011;35993;52.604;10.078;2023-04-24T01:46:28;1.73;;;1.05;;
50102;SDS011;35993;52.604;10.078;2023-04-24T01:48:56;1.10;;;0.98;;
50102;SDS011;35993;52.604;10.078;2023-04-24T01:51:24;2.72;;;1.38;;
50102;SDS011;35993;52.604;10.078;2023-04-24T01:53:50;2.25;;;1.10;;
50102;SDS011;35993;52.604;10.078;2023-04-24T01:56:16;2.40;;;1.00;;
50102;SDS011;35993;52.604;10.078;2023-04-24T01:58:42;1.65;;;0.95;;
50102;SDS011;35993;52.604;10.078;2023-04-24T02:01:08;1.13;;;1.02;;
50102;SDS011;35993;52.604;10.078;2023-04-24T02:03:34;1.15;;;0.98;;
50102;SDS011;35993;52.604;10.078;2023-04-24T02:05:59;1.27;;;0.90;;
50102;SDS011;35993;52.604;10.078;2023-04-24T02:08:25;1.73;;;1.00;;
50102;SDS011;35993;52.604;10.078;2023-04-24T02:10:50;1.50;;;0.95;;
50102;SDS011;35993;52.604;10.078;2023-04-24T02:13:16;2.67;;;1.00;;
50102;SDS011;35993;52.604;10.078;2023-04-24T02:15:42;1.40;;;0.93;;
50102;SDS011;35993;52.604;10.078;2023-04-24T02:18:07;2.35;;;0.98;;
50102;SDS011;35993;52.604;10.078;2023-04-24T02:20:33;1.13;;;1.00;;
50102;SDS011;35993;52.604;10.078;2023-04-24T02:23:02;1.65;;;1.08;;
50102;SDS011;35993;52.604;10.078;2023-04-24T02:25:27;1.15;;;0.90;;
50102;SDS011;35993;52.604;10.078;2023-04-24T02:27:54;1.23;;;1.10;;
50102;SDS011;35993;52.604;10.078;2023-04-24T02:30:20;3.60;;;1.00;;
50102;SDS011;35993;52.604;10.078;2023-04-24T02:32:45;2.50;;;1.20;;
50102;SDS011;35993;52.604;10.078;2023-04-24T02:35:11;1.77;;;1.00;;
50102;SDS011;35993;52.604;10.078;2023-04-24T02:37:36;1.73;;;1.08;;
50102;SDS011;35993;52.604;10.078;2023-04-24T02:40:02;2.38;;;1.20;;
50102;SDS011;35993;52.604;10.078;2023-04-24T02:42:28;1.27;;;0.90;;
50102;SDS011;35993;52.604;10.078;2023-04-24T02:44:53;1.38;;;1.00;;
50102;SDS011;35993;52.604;10.078;2023-04-24T02:47:19;2.15;;;1.00;;
50102;SDS011;35993;52.604;10.078;2023-04-24T02:49:45;1.60;;;1.08;;
50102;SDS011;35993;52.604;10.078;2023-04-24T02:52:10;1.80;;;1.00;;
50102;SDS011;35993;52.604;10.078;2023-04-24T02:54:36;1.52;;;1.10;;
50102;SDS011;35993;52.604;10.078;2023-04-24T02:57:01;1.67;;;1.10;;
50102;SDS011;35993;52.604;10.078;2023-04-24T02:59:27;1.48;;;1.10;;
50102;SDS011;35993;52.604;10.078;2023-04-24T03:01:54;2.03;;;1.13;;
50102;SDS011;35993;52.604;10.078;2023-04-24T03:04:19;1.63;;;1.20;;
50102;SDS011;35993;52.604;10.078;2023-04-24T03:06:45;1.40;;;1.00;;
50102;SDS011;35993;52.604;10.078;2023-04-24T03:09:12;1.75;;;1.10;;
50102;SDS011;35993;52.604;10.078;2023-04-24T03:11:37;1.10;;;0.90;;
50102;SDS011;35993;52.604;10.078;2023-04-24T03:14:03;2.33;;;1.20;;
50102;SDS011;35993;52.604;10.078;2023-04-24T03:16:28;2.50;;;1.02;;
50102;SDS011;35993;52.604;10.078;2023-04-24T03:18:54;1.75;;;0.98;;
50102;SDS011;35993;52.604;10.078;2023-04-24T03:21:20;1.20;;;1.00;;
50102;SDS011;35993;52.604;10.078;2023-04-24T03:23:46;3.38;;;1.23;;
50102;SDS011;35993;52.604;10.078;2023-04-24T03:26:11;1.33;;;1.10;;
50102;SDS011;35993;52.604;10.078;2023-04-24T03:28:44;2.05;;;1.05;;
50102;SDS011;35993;52.604;10.078;2023-04-24T03:31:10;1.45;;;1.08;;
50102;SDS011;35993;52.604;10.078;2023-04-24T03:33:36;1.45;;;1.10;;
50102;SDS011;35993;52.604;10.078;2023-04-24T03:36:02;2.25;;;0.90;;
50102;SDS011;35993;52.604;10.078;2023-04-24T03:38:35;1.55;;;1.13;;
50102;SDS011;35993;52.604;10.078;2023-04-24T03:41:16;1.92;;;1.30;;
50102;SDS011;35993;52.604;10.078;2023-04-24T03:43:48;2.60;;;1.00;;
50102;SDS011;35993;52.604;10.078;2023-04-24T03:46:15;2.92;;;1.23;;
50102;SDS011;35993;52.604;10.078;2023-04-24T03:48:46;2.72;;;1.20;;
50102;SDS011;35993;52.604;10.078;2023-04-24T03:51:14;1.23;;;0.90;;
50102;SDS011;35993;52.604;10.078;2023-04-24T03:53:43;1.40;;;0.95;;
50102;SDS011;35993;52.604;10.078;2023-04-24T03:56:11;2.38;;;1.15;;
50102;SDS011;35993;52.604;10.078;2023-04-24T03:58:37;2.33;;;1.08;;
50102;SDS011;35993;52.604;10.078;2023-04-24T04:01:02;1.38;;;1.08;;
50102;SDS011;35993;52.604;10.078;2023-04-24T04:03:37;1.70;;;1.00;;
50102;SDS011;35993;52.604;10.078;2023-04-24T04:06:03;2.45;;;1.20;;
50102;SDS011;35993;52.604;10.078;2023-04-24T04:08:29;1.60;;;1.20;;
50102;SDS011;35993;52.604;10.078;2023-04-24T04:10:55;2.45;;;1.00;;
50102;SDS011;35993;52.604;10.078;2023-04-24T04:13:22;2.60;;;1.20;;
50102;SDS011;35993;52.604;10.078;2023-04-24T04:15:48;1.45;;;1.00;;
50102;SDS011;35993;52.604;10.078;2023-04-24T04:18:14;3.17;;;1.15;;
50102;SDS011;35993;52.604;10.078;2023-04-24T04:20:40;1.98;;;1.27;;
50102;SDS011;35993;52.604;10.078;2023-04-24T04:23:05;2.63;;;1.05;;
50102;SDS011;35993;52.604;10.078;2023-04-24T04:26:00;1.35;;;1.00;;
50102;SDS011;35993;52.604;10.078;2023-04-24T04:28:37;1.25;;;0.90;;
50102;SDS011;35993;52.604;10.078;2023-04-24T04:31:04;1.92;;;1.20;;
50102;SDS011;35993;52.604;10.078;2023-04-24T04:33:30;2.55;;;1.10;;
50102;SDS011;35993;52.604;10.078;2023-04-24T04:35:56;2.28;;;1.08;;
50102;SDS011;35993;52.604;10.078;2023-04-24T04:38:24;1.17;;;1.00;;
50102;SDS011;35993;52.604;10.078;2023-04-24T04:41:10;2.53;;;1.20;;
50102;SDS011;35993;52.604;10.078;2023-04-24T04:43:36;1.98;;;0.95;;
50102;SDS011;35993;52.604;10.078;2023-04-24T04:46:03;1.63;;;0.95;;
50102;SDS011;35993;52.604;10.078;2023-04-24T04:48:46;1.77;;;1.00;;
50102;SDS011;35993;52.604;10.078;2023-04-24T04:51:11;2.42;;;1.25;;
50102;SDS011;35993;52.604;10.078;2023-04-24T04:53:38;3.28;;;1.10;;
50102;SDS011;35993;52.604;10.078;2023-04-24T04:56:03;2.33;;;1.10;;
50102;SDS011;35993;52.604;10.078;2023-04-24T04:58:36;3.08;;;1.10;;
50102;SDS011;35993;52.604;10.078;2023-04-24T05:01:04;1.48;;;0.93;;
50102;SDS011;35993;52.604;10.078;2023-04-24T05:03:35;4.22;;;1.20;;
50102;SDS011;35993;52.604;10.078;2023-04-24T05:06:07;2.47;;;1.20;;
50102;SDS011;35993;52.604;10.078;2023-04-24T05:08:36;3.00;;;1.50;;
50102;SDS011;35993;52.604;10.078;2023-04-24T05:11:04;1.38;;;1.00;;
50102;SDS011;35993;52.604;10.078;2023-04-24T05:13:31;2.63;;;0.98;;
50102;SDS011;35993;52.604;10.078;2023-04-24T05:15:57;1.50;;;1.10;;
50102;SDS011;35993;52.604;10.078;2023-04-24T05:18:22;2.13;;;1.40;;
50102;SDS011;35993;52.604;10.078;2023-04-24T05:20:48;3.78;;;1.33;;
50102;SDS011;35993;52.604;10.078;2023-04-24T05:23:14;2.17;;;1.38;;
50102;SDS011;35993;52.604;10.078;2023-04-24T05:25:42;2.13;;;1.30;;
50102;SDS011;35993;52.604;10.078;2023-04-24T05:28:10;1.42;;;1.30;;
50102;SDS011;35993;52.604;10.078;2023-04-24T05:30:37;1.73;;;1.13;;
50102;SDS011;35993;52.604;10.078;2023-04-24T05:33:02;2.60;;;1.40;;
50102;SDS011;35993;52.604;10.078;2023-04-24T05:35:29;2.75;;;1.40;;
50102;SDS011;35993;52.604;10.078;2023-04-24T05:37:55;3.95;;;1.60;;
50102;SDS011;35993;52.604;10.078;2023-04-24T05:40:20;2.78;;;1.45;;
50102;SDS011;35993;52.604;10.078;2023-04-24T05:42:47;2.00;;;1.30;;
50102;SDS011;35993;52.604;10.078;2023-04-24T05:45:12;3.40;;;1.55;;
50102;SDS011;35993;52.604;10.078;2023-04-24T05:47:42;1.98;;;1.35;;
50102;SDS011;35993;52.604;10.078;2023-04-24T05:50:10;2.10;;;1.30;;
50102;SDS011;35993;52.604;10.078;2023-04-24T05:52:36;1.48;;;1.15;;
50102;SDS011;35993;52.604;10.078;2023-04-24T05:55:05;2.35;;;1.30;;
50102;SDS011;35993;52.604;10.078;2023-04-24T05:57:32;1.90;;;1.20;;
50102;SDS011;35993;52.604;10.078;2023-04-24T06:00:02;3.95;;;1.35;;
50102;SDS011;35993;52.604;10.078;2023-04-24T06:02:38;1.50;;;1.00;;
50102;SDS011;35993;52.604;10.078;2023-04-24T06:05:06;1.85;;;1.10;;
50102;SDS011;35993;52.604;10.078;2023-04-24T06:07:33;1.88;;;1.20;;
50102;SDS011;35993;52.604;10.078;2023-04-24T06:10:02;1.33;;;0.90;;
50102;SDS011;35993;52.604;10.078;2023-04-24T06:12:31;1.55;;;1.02;;
50102;SDS011;35993;52.604;10.078;2023-04-24T06:15:02;4.60;;;1.50;;
50102;SDS011;35993;52.604;10.078;2023-04-24T06:17:43;2.88;;;1.10;;
50102;SDS011;35993;52.604;10.078;2023-04-24T06:20:09;1.63;;;0.90;;
50102;SDS011;35993;52.604;10.078;2023-04-24T06:22:36;1.90;;;1.10;;
50102;SDS011;35993;52.604;10.078;2023-04-24T06:25:02;1.65;;;1.17;;
50102;SDS011;35993;52.604;10.078;2023-04-24T06:27:28;0.90;;;0.85;;
50102;SDS011;35993;52.604;10.078;2023-04-24T06:29:53;2.35;;;1.00;;
50102;SDS011;35993;52.604;10.078;2023-04-24T06:32:23;2.00;;;1.00;;
50102;SDS011;35993;52.604;10.078;2023-04-24T06:34:51;1.17;;;0.88;;
50102;SDS011;35993;52.604;10.078;2023-04-24T06:37:18;2.33;;;1.17;;
50102;SDS011;35993;52.604;10.078;2023-04-24T06:39:44;2.08;;;1.20;;
50102;SDS011;35993;52.604;10.078;2023-04-24T06:42:09;1.50;;;1.05;;
50102;SDS011;35993;52.604;10.078;2023-04-24T06:44:35;4.72;;;1.02;;
50102;SDS011;35993;52.604;10.078;2023-04-24T06:47:06;1.83;;;1.10;;
50102;SDS011;35993;52.604;10.078;2023-04-24T06:49:34;1.80;;;1.33;;
50102;SDS011;35993;52.604;10.078;2023-04-24T06:52:00;1.98;;;1.10;;
50102;SDS011;35993;52.604;10.078;2023-04-24T06:54:25;1.83;;;1.48;;
50102;SDS011;35993;52.604;10.078;2023-04-24T06:56:51;2.55;;;1.10;;
50102;SDS011;35993;52.604;10.078;2023-04-24T06:59:17;3.17;;;1.20;;
50102;SDS011;35993;52.604;10.078;2023-04-24T07:01:43;2.40;;;1.10;;
50102;SDS011;35993;52.604;10.078;2023-04-24T07:04:08;2.47;;;1.13;;
50102;SDS011;35993;52.604;10.078;2023-04-24T07:06:34;3.05;;;1.45;;
50102;SDS011;35993;52.604;10.078;2023-04-24T07:09:01;1.50;;;1.15;;
50102;SDS011;35993;52.604;10.078;2023-04-24T07:11:26;2.15;;;1.30;;
50102;SDS011;35993;52.604;10.078;2023-04-24T07:13:54;2.08;;;1.23;;
50102;SDS011;35993;52.604;10.078;2023-04-24T07:16:20;1.40;;;1.10;;
50102;SDS011;35993;52.604;10.078;2023-04-24T07:18:46;1.80;;;1.20;;
50102;SDS011;35993;52.604;10.078;2023-04-24T07:21:11;3.03;;;1.23;;
50102;SDS011;35993;52.604;10.078;2023-04-24T07:23:37;2.17;;;1.45;;
50102;SDS011;35993;52.604;10.078;2023-04-24T07:26:03;1.85;;;1.40;;
50102;SDS011;35993;52.604;10.078;2023-04-24T07:28:28;2.45;;;1.70;;
50102;SDS011;35993;52.604;10.078;2023-04-24T07:30:57;4.78;;;1.90;;
50102;SDS011;35993;52.604;10.078;2023-04-24T07:33:25;2.50;;;1.77;;
50102;SDS011;35993;52.604;10.078;2023-04-24T07:35:51;3.20;;;1.88;;
50102;SDS011;35993;52.604;10.078;2023-04-24T07:38:17;3.13;;;1.83;;
50102;SDS011;35993;52.604;10.078;2023-04-24T07:40:46;2.70;;;1.98;;
50102;SDS011;35993;52.604;10.078;2023-04-24T07:43:11;8.05;;;2.20;;
50102;SDS011;35993;52.604;10.078;2023-04-24T07:45:37;2.92;;;2.08;;
50102;SDS011;35993;52.604;10.078;2023-04-24T07:48:03;3.35;;;2.25;;
50102;SDS011;35993;52.604;10.078;2023-04-24T07:50:28;4.90;;;2.30;;
50102;SDS011;35993;52.604;10.078;2023-04-24T07:52:54;4.68;;;2.53;;
50102;SDS011;35993;52.604;10.078;2023-04-24T07:55:20;5.78;;;2.40;;
50102;SDS011;35993;52.604;10.078;2023-04-24T07:57:45;3.67;;;2.72;;
50102;SDS011;35993;52.604;10.078;2023-04-24T08:00:11;4.28;;;3.15;;
50102;SDS011;35993;52.604;10.078;2023-04-24T08:02:37;4.05;;;3.10;;
50102;SDS011;35993;52.604;10.078;2023-04-24T08:05:03;5.20;;;3.13;;
50102;SDS011;35993;52.604;10.078;2023-04-24T08:07:28;4.55;;;3.20;;
50102;SDS011;35993;52.604;10.078;2023-04-24T08:09:54;5.70;;;3.53;;
50102;SDS011;35993;52.604;10.078;2023-04-24T08:12:19;4.90;;;2.97;;
50102;SDS011;35993;52.604;10.078;2023-04-24T08:14:45;6.05;;;3.40;;
50102;SDS011;35993;52.604;10.078;2023-04-24T08:17:10;4.88;;;3.45;;
50102;SDS011;35993;52.604;10.078;2023-04-24T08:19:36;6.13;;;4.05;;
50102;SDS011;35993;52.604;10.078;2023-04-24T08:22:01;6.85;;;3.70;;
50102;SDS011;35993;52.604;10.078;2023-04-24T08:24:29;5.55;;;3.20;;
50102;SDS011;35993;52.604;10.078;2023-04-24T08:26:54;7.40;;;4.00;;
50102;SDS011;35993;52.604;10.078;2023-04-24T08:29:23;5.22;;;3.47;;
50102;SDS011;35993;52.604;10.078;2023-04-24T08:31:48;7.18;;;3.58;;
50102;SDS011;35993;52.604;10.078;2023-04-24T08:34:14;7.50;;;3.80;;
50102;SDS011;35993;52.604;10.078;2023-04-24T08:36:39;6.07;;;4.30;;
50102;SDS011;35993;52.604;10.078;2023-04-24T08:39:06;6.55;;;4.25;;
50102;SDS011;35993;52.604;10.078;2023-04-24T08:41:32;7.32;;;4.53;;
50102;SDS011;35993;52.604;10.078;2023-04-24T08:43:59;10.52;;;4.57;;
50102;SDS011;35993;52.604;10.078;2023-04-24T08:46:27;8.38;;;4.90;;
50102;SDS011;35993;52.604;10.078;2023-04-24T08:48:53;9.30;;;4.47;;
50102;SDS011;35993;52.604;10.078;2023-04-24T08:51:19;9.32;;;4.93;;
50102;SDS011;35993;52.604;10.078;2023-04-24T08:53:45;7.63;;;4.85;;
50102;SDS011;35993;52.604;10.078;2023-04-24T08:56:11;7.15;;;4.60;;
50102;SDS011;35993;52.604;10.078;2023-04-24T08:58:37;6.93;;;4.60;;
50102;SDS011;35993;52.604;10.078;2023-04-24T09:01:04;5.63;;;4.00;;
50102;SDS011;35993;52.604;10.078;2023-04-24T09:03:30;7.22;;;4.53;;
50102;SDS011;35993;52.604;10.078;2023-04-24T09:05:56;8.75;;;4.93;;
50102;SDS011;35993;52.604;10.078;2023-04-24T09:08:24;7.43;;;4.20;;
50102;SDS011;35993;52.604;10.078;2023-04-24T09:10:51;9.43;;;5.28;;
50102;SDS011;35993;52.604;10.078;2023-04-24T09:13:17;7.43;;;4.85;;
50102;SDS011;35993;52.604;10.078;2023-04-24T09:15:44;7.10;;;4.70;;
50102;SDS011;35993;52.604;10.078;2023-04-24T09:18:10;7.05;;;5.10;;
50102;SDS011;35993;52.604;10.078;2023-04-24T09:20:56;8.40;;;5.88;;
50102;SDS011;35993;52.604;10.078;2023-04-24T09:23:41;7.47;;;5.82;;
50102;SDS011;35993;52.604;10.078;2023-04-24T09:26:08;10.13;;;5.70;;
50102;SDS011;35993;52.604;10.078;2023-04-24T09:28:36;6.65;;;5.05;;
50102;SDS011;35993;52.604;10.078;2023-04-24T09:31:04;10.32;;;5.78;;
50102;SDS011;35993;52.604;10.078;2023-04-24T09:33:34;7.78;;;5.22;;
50102;SDS011;35993;52.604;10.078;2023-04-24T09:36:01;8.15;;;5.07;;
50102;SDS011;35993;52.604;10.078;2023-04-24T09:38:31;6.63;;;4.28;;
50102;SDS011;35993;52.604;10.078;2023-04-24T09:41:05;6.38;;;4.30;;
50102;SDS011;35993;52.604;10.078;2023-04-24T09:43:32;4.63;;;3.53;;
50102;SDS011;35993;52.604;10.078;2023-04-24T09:45:58;6.15;;;4.20;;
50102;SDS011;35993;52.604;10.078;2023-04-24T09:48:32;6.63;;;3.33;;
50102;SDS011;35993;52.604;10.078;2023-04-24T09:51:00;5.90;;;3.47;;
50102;SDS011;35993;52.604;10.078;2023-04-24T09:53:27;5.00;;;3.10;;
50102;SDS011;35993;52.604;10.078;2023-04-24T09:55:53;5.05;;;3.30;;
50102;SDS011;35993;52.604;10.078;2023-04-24T09:58:25;4.47;;;2.88;;
50102;SDS011;35993;52.604;10.078;2023-04-24T10:00:55;5.00;;;2.90;;
50102;SDS011;35993;52.604;10.078;2023-04-24T10:03:23;4.20;;;3.10;;
50102;SDS011;35993;52.604;10.078;2023-04-24T10:05:51;5.50;;;2.95;;
50102;SDS011;35993;52.604;10.078;2023-04-24T10:08:17;4.53;;;2.70;;
50102;SDS011;35993;52.604;10.078;2023-04-24T10:10:44;6.00;;;3.35;;
50102;SDS011;35993;52.604;10.078;2023-04-24T10:13:11;3.42;;;2.60;;
50102;SDS011;35993;52.604;10.078;2023-04-24T10:15:38;4.00;;;2.58;;
50102;SDS011;35993;52.604;10.078;2023-04-24T10:18:05;3.10;;;2.50;;
50102;SDS011;35993;52.604;10.078;2023-04-24T10:20:32;4.60;;;2.60;;
50102;SDS011;35993;52.604;10.078;2023-04-24T10:23:01;4.00;;;2.40;;
50102;SDS011;35993;52.604;10.078;2023-04-24T10:25:28;4.95;;;2.50;;
50102;SDS011;35993;52.604;10.078;2023-04-24T10:27:55;3.50;;;2.40;;
50102;SDS011;35993;52.604;10.078;2023-04-24T10:30:24;3.53;;;2.20;;
50102;SDS011;35993;52.604;10.078;2023-04-24T10:32:51;3.35;;;2.13;;
50102;SDS011;35993;52.604;10.078;2023-04-24T10:35:17;5.07;;;2.42;;
50102;SDS011;35993;52.604;10.078;2023-04-24T10:37:48;3.08;;;2.28;;
50102;SDS011;35993;52.604;10.078;2023-04-24T10:40:17;4.60;;;2.63;;
50102;SDS011;35993;52.604;10.078;2023-04-24T10:42:47;2.58;;;2.13;;
50102;SDS011;35993;52.604;10.078;2023-04-24T10:45:20;3.92;;;2.50;;
50102;SDS011;35993;52.604;10.078;2023-04-24T10:47:57;3.92;;;2.25;;
50102;SDS011;35993;52.604;10.078;2023-04-24T10:50:28;4.97;;;2.25;;
50102;SDS011;35993;52.604;10.078;2023-04-24T10:53:05;3.20;;;2.53;;
50102;SDS011;35993;52.604;10.078;2023-04-24T10:55:42;3.83;;;2.50;;
50102;SDS011;35993;52.604;10.078;2023-04-24T10:58:10;4.78;;;2.40;;
50102;SDS011;35993;52.604;10.078;2023-04-24T11:00:37;5.65;;;2.40;;
50102;SDS011;35993;52.604;10.078;2023-04-24T11:03:07;2.63;;;2.10;;
50102;SDS011;35993;52.604;10.078;2023-04-24T11:05:52;3.80;;;2.17;;
50102;SDS011;35993;52.604;10.078;2023-04-24T11:08:27;2.85;;;2.20;;
50102;SDS011;35993;52.604;10.078;2023-04-24T11:10:54;3.67;;;2.20;;
50102;SDS011;35993;52.604;10.078;2023-04-24T11:14:00;3.40;;;2.22;;
50102;SDS011;35993;52.604;10.078;2023-04-24T11:19:03;3.38;;;2.00;;
50102;SDS011;35993;52.604;10.078;2023-04-24T11:21:49;3.33;;;2.45;;
50102;SDS011;35993;52.604;10.078;2023-04-24T11:26:51;3.70;;;2.33;;
50102;SDS011;35993;52.604;10.078;2023-04-24T11:29:44;3.78;;;2.30;;
50102;SDS011;35993;52.604;10.078;2023-04-24T11:35:03;3.17;;;2.10;;
50102;SDS011;35993;52.604;10.078;2023-04-24T11:37:36;2.75;;;2.08;;
50102;SDS011;35993;52.604;10.078;2023-04-24T11:40:03;3.13;;;2.13;;
50102;SDS011;35993;52.604;10.078;2023-04-24T11:42:34;3.83;;;2.42;;
50102;SDS011;35993;52.604;10.078;2023-04-24T11:45:01;3.20;;;2.30;;
50102;SDS011;35993;52.604;10.078;2023-04-24T11:47:32;3.17;;;2.20;;
50102;SDS011;35993;52.604;10.078;2023-04-24T11:49:59;2.95;;;2.00;;
50102;SDS011;35993;52.604;10.078;2023-04-24T11:52:25;5.43;;;2.58;;
50102;SDS011;35993;52.604;10.078;2023-04-24T11:54:52;3.28;;;2.30;;
50102;SDS011;35993;52.604;10.078;2023-04-24T11:57:21;2.50;;;1.80;;
50102;SDS011;35993;52.604;10.078;2023-04-24T11:59:47;4.78;;;2.40;;
50102;SDS011;35993;52.604;10.078;2023-04-24T12:02:23;2.72;;;2.03;;
50102;SDS011;35993;52.604;10.078;2023-04-24T12:04:50;3.17;;;2.13;;
50102;SDS011;35993;52.604;10.078;2023-04-24T12:07:16;3.97;;;1.77;;
50102;SDS011;35993;52.604;10.078;2023-04-24T12:12:12;2.88;;;1.92;;
50102;SDS011;35993;52.604;10.078;2023-04-24T12:14:42;3.58;;;2.22;;
50102;SDS011;35993;52.604;10.078;2023-04-24T12:17:15;5.05;;;3.13;;
50102;SDS011;35993;52.604;10.078;2023-04-24T12:19:47;4.45;;;2.90;;
50102;SDS011;35993;52.604;10.078;2023-04-24T12:22:13;2.83;;;1.95;;
50102;SDS011;35993;52.604;10.078;2023-04-24T12:24:58;4.03;;;2.00;;
50102;SDS011;35993;52.604;10.078;2023-04-24T12:27:26;2.53;;;1.60;;
50102;SDS011;35993;52.604;10.078;2023-04-24T12:29:57;4.25;;;1.60;;
50102;SDS011;35993;52.604;10.078;2023-04-24T12:32:24;2.60;;;1.48;;
50102;SDS011;35993;52.604;10.078;2023-04-24T12:34:51;1.70;;;1.40;;
50102;SDS011;35993;52.604;10.078;2023-04-24T12:37:20;2.13;;;1.30;;
50102;SDS011;35993;52.604;10.078;2023-04-24T12:40:06;3.67;;;1.20;;
50102;SDS011;35993;52.604;10.078;2023-04-24T12:42:34;1.58;;;1.25;;
50102;SDS011;35993;52.604;10.078;2023-04-24T12:45:04;2.33;;;1.30;;
50102;SDS011;35993;52.604;10.078;2023-04-24T12:47:31;1.40;;;1.10;;
50102;SDS011;35993;52.604;10.078;2023-04-24T12:49:58;1.88;;;1.40;;
50102;SDS011;35993;52.604;10.078;2023-04-24T12:52:24;1.85;;;1.30;;
50102;SDS011;35993;52.604;10.078;2023-04-24T12:54:55;1.58;;;1.30;;
50102;SDS011;35993;52.604;10.078;2023-04-24T12:57:24;3.92;;;1.40;;
50102;SDS011;35993;52.604;10.078;2023-04-24T12:59:53;2.03;;;1.50;;
50102;SDS011;35993;52.604;10.078;2023-04-24T13:02:19;1.40;;;1.15;;
50102;SDS011;35993;52.604;10.078;2023-04-24T13:04:46;2.60;;;1.40;;
50102;SDS011;35993;52.604;10.078;2023-04-24T13:07:12;2.88;;;1.40;;
50102;SDS011;35993;52.604;10.078;2023-04-24T13:09:39;1.70;;;1.40;;
50102;SDS011;35993;52.604;10.078;2023-04-24T13:12:05;1.60;;;1.35;;
50102;SDS011;35993;52.604;10.078;2023-04-24T13:14:32;1.98;;;1.73;;
50102;SDS011;35993;52.604;10.078;2023-04-24T13:16:57;2.13;;;1.55;;
50102;SDS011;35993;52.604;10.078;2023-04-24T13:19:27;2.33;;;1.40;;
50102;SDS011;35993;52.604;10.078;2023-04-24T13:21:53;6.47;;;1.77;;
50102;SDS011;35993;52.604;10.078;2023-04-24T13:24:21;3.30;;;2.10;;
50102;SDS011;35993;52.604;10.078;2023-04-24T13:26:50;3.00;;;1.70;;
50102;SDS011;35993;52.604;10.078;2023-04-24T13:29:16;2.53;;;1.55;;
50102;SDS011;35993;52.604;10.078;2023-04-24T13:31:41;2.67;;;1.50;;
50102;SDS011;35993;52.604;10.078;2023-04-24T13:34:07;3.97;;;2.10;;
50102;SDS011;35993;52.604;10.078;2023-04-24T13:36:32;2.40;;;1.67;;
50102;SDS011;35993;52.604;10.078;2023-04-24T13:38:58;1.73;;;1.27;;
50102;SDS011;35993;52.604;10.078;2023-04-24T13:41:24;4.07;;;1.73;;
50102;SDS011;35993;52.604;10.078;2023-04-24T13:43:49;1.80;;;1.45;;
50102;SDS011;35993;52.604;10.078;2023-04-24T13:46:15;1.95;;;1.38;;
50102;SDS011;35993;52.604;10.078;2023-04-24T13:48:42;1.90;;;1.40;;
50102;SDS011;35993;52.604;10.078;2023-04-24T13:51:07;2.42;;;1.50;;
50102;SDS011;35993;52.604;10.078;2023-04-24T13:53:33;4.05;;;1.30;;
50102;SDS011;35993;52.604;10.078;2023-04-24T13:56:01;1.70;;;1.30;;
50102;SDS011;35993;52.604;10.078;2023-04-24T13:58:27;1.60;;;1.42;;
50102;SDS011;35993;52.604;10.078;2023-04-24T14:00:53;3.78;;;1.35;;
50102;SDS011;35993;52.604;10.078;2023-04-24T14:03:18;1.38;;;1.20;;
50102;SDS011;35993;52.604;10.078;2023-04-24T14:05:44;1.45;;;1.02;;
50102;SDS011;35993;52.604;10.078;2023-04-24T14:08:09;3.72;;;0.95;;
50102;SDS011;35993;52.604;10.078;2023-04-24T14:10:35;0.73;;;0.70;;
50102;SDS011;35993;52.604;10.078;2023-04-24T14:13:00;1.30;;;1.00;;
50102;SDS011;35993;52.604;10.078;2023-04-24T14:15:26;1.60;;;0.90;;
50102;SDS011;35993;52.604;10.078;2023-04-24T14:17:52;3.33;;;0.90;;
50102;SDS011;35993;52.604;10.078;2023-04-24T14:20:17;1.48;;;1.05;;
50102;SDS011;35993;52.604;10.078;2023-04-24T14:22:43;1.55;;;1.00;;
50102;SDS011;35993;52.604;10.078;2023-04-24T14:25:09;1.20;;;1.08;;
50102;SDS011;35993;52.604;10.078;2023-04-24T14:27:34;4.72;;;1.10;;
50102;SDS011;35993;52.604;10.078;2023-04-24T14:30:00;2.75;;;1.25;;
50102;SDS011;35993;52.604;10.078;2023-04-24T14:32:26;1.45;;;1.10;;
50102;SDS011;35993;52.604;10.078;2023-04-24T14:34:51;1.60;;;1.10;;
50102;SDS011;35993;52.604;10.078;2023-04-24T14:37:17;2.33;;;1.00;;
50102;SDS011;35993;52.604;10.078;2023-04-24T14:39:42;2.35;;;0.90;;
50102;SDS011;35993;52.604;10.078;2023-04-24T14:42:08;1.98;;;0.98;;
50102;SDS011;35993;52.604;10.078;2023-04-24T14:44:33;1.42;;;0.90;;
50102;SDS011;35993;52.604;10.078;2023-04-24T14:46:59;1.27;;;0.93;;
50102;SDS011;35993;52.604;10.078;2023-04-24T14:49:25;3.00;;;0.98;;